Bol'Sie Uki, Russia
Current Conditions -  °F | °C
As of 4:30 AM on Tuesday 21 Oct 2014 (Local Time) from UNOO Reporting Station
Blowing Snow Blowing Snow  
Wind Chill:   Ceiling: 800
Heat Index: 25°   Visibility: 0.37mi
Dew Point: 23°   Wind: 25mph
Humidity: 93%   Direction: 290°WNW
Pressure: 29.44"   Gusts: 36mph
Location:  56.93°N, 72.67°E
Report Text: UNOO 202230Z 29011G16MPS 0600 R25/0800V1200D +SHSN BLSN BKN008BKN026CB M04/M05 Q0997 25890540 TEMPO 30017MPS 0200 +SHSN BLSNVV002 RMK OBST PT OBSC QFE739
Loading
Personal Weather Stations






























Interactive Weather Map
Tropical Storm Tracking
New forecast layout! Learn more

10-Day Weather Forecast

Advertisements
Track Severe Weather on mobile